sensor_id;sensor_type;location;lat;lon;timestamp;temperature;humidity
15749;DHT22;7976;52.526;13.326;2022-08-19T00:01:29;21.60;99.90
15749;DHT22;7976;52.526;13.326;2022-08-19T00:03:56;21.60;99.90
15749;DHT22;7976;52.526;13.326;2022-08-19T00:06:24;21.60;99.90
15749;DHT22;7976;52.526;13.326;2022-08-19T00:08:51;21.60;99.90
15749;DHT22;7976;52.526;13.326;2022-08-19T00:11:19;21.60;99.90
15749;DHT22;7976;52.526;13.326;2022-08-19T00:13:46;21.60;99.90
15749;DHT22;7976;52.526;13.326;2022-08-19T00:16:15;21.60;99.90
15749;DHT22;7976;52.526;13.326;2022-08-19T00:18:44;21.60;99.90
15749;DHT22;7976;52.526;13.326;2022-08-19T00:21:11;21.60;99.90
15749;DHT22;7976;52.526;13.326;2022-08-19T00:23:39;21.60;99.90
15749;DHT22;7976;52.526;13.326;2022-08-19T00:26:07;21.60;99.90
15749;DHT22;7976;52.526;13.326;2022-08-19T00:28:36;21.60;99.90
15749;DHT22;7976;52.526;13.326;2022-08-19T00:31:04;21.60;99.90
15749;DHT22;7976;52.526;13.326;2022-08-19T00:33:32;21.70;99.90
15749;DHT22;7976;52.526;13.326;2022-08-19T00:36:00;21.70;99.90
15749;DHT22;7976;52.526;13.326;2022-08-19T00:38:27;21.70;99.90
15749;DHT22;7976;52.526;13.326;2022-08-19T00:40:54;21.70;99.90
15749;DHT22;7976;52.526;13.326;2022-08-19T00:43:23;21.70;99.90
15749;DHT22;7976;52.526;13.326;2022-08-19T00:45:54;21.70;99.90
15749;DHT22;7976;52.526;13.326;2022-08-19T00:48:21;21.70;99.90
15749;DHT22;7976;52.526;13.326;2022-08-19T00:50:49;21.70;99.90
15749;DHT22;7976;52.526;13.326;2022-08-19T00:53:21;21.70;99.90
15749;DHT22;7976;52.526;13.326;2022-08-19T00:55:53;21.70;99.90
15749;DHT22;7976;52.526;13.326;2022-08-19T00:58:26;21.70;99.90
15749;DHT22;7976;52.526;13.326;2022-08-19T01:00:58;21.70;99.90
15749;DHT22;7976;52.526;13.326;2022-08-19T01:03:24;21.70;99.90
15749;DHT22;7976;52.526;13.326;2022-08-19T01:05:54;21.70;99.90
15749;DHT22;7976;52.526;13.326;2022-08-19T01:08:22;21.60;99.90
15749;DHT22;7976;52.526;13.326;2022-08-19T01:10:54;21.50;99.90
15749;DHT22;7976;52.526;13.326;2022-08-19T01:13:25;21.30;99.90
15749;DHT22;7976;52.526;13.326;2022-08-19T01:16:02;21.20;99.90
15749;DHT22;7976;52.526;13.326;2022-08-19T01:18:32;21.00;99.90
15749;DHT22;7976;52.526;13.326;2022-08-19T01:21:09;21.00;99.90
15749;DHT22;7976;52.526;13.326;2022-08-19T01:23:43;20.90;99.90
15749;DHT22;7976;52.526;13.326;2022-08-19T01:26:11;20.90;99.90
15749;DHT22;7976;52.526;13.326;2022-08-19T01:28:40;20.90;99.90
15749;DHT22;7976;52.526;13.326;2022-08-19T01:31:10;20.90;99.90
15749;DHT22;7976;52.526;13.326;2022-08-19T01:33:39;20.90;99.90
15749;DHT22;7976;52.526;13.326;2022-08-19T01:36:10;20.80;99.90
15749;DHT22;7976;52.526;13.326;2022-08-19T01:38:41;20.80;99.90
15749;DHT22;7976;52.526;13.326;2022-08-19T01:41:10;20.80;99.90
15749;DHT22;7976;52.526;13.326;2022-08-19T01:43:38;20.70;99.90
15749;DHT22;7976;52.526;13.326;2022-08-19T01:46:05;20.70;99.90
15749;DHT22;7976;52.526;13.326;2022-08-19T01:48:36;20.80;99.90
15749;DHT22;7976;52.526;13.326;2022-08-19T01:51:05;20.80;99.90
15749;DHT22;7976;52.526;13.326;2022-08-19T01:53:32;20.80;99.90
15749;DHT22;7976;52.526;13.326;2022-08-19T01:56:02;20.80;99.90
15749;DHT22;7976;52.526;13.326;2022-08-19T01:58:34;20.70;99.90
15749;DHT22;7976;52.526;13.326;2022-08-19T02:01:04;20.80;99.90
15749;DHT22;7976;52.526;13.326;2022-08-19T02:03:31;20.70;99.90
15749;DHT22;7976;52.526;13.326;2022-08-19T02:06:01;20.70;99.90
15749;DHT22;7976;52.526;13.326;2022-08-19T02:08:31;20.70;99.90
15749;DHT22;7976;52.526;13.326;2022-08-19T02:11:02;20.70;99.90
15749;DHT22;7976;52.526;13.326;2022-08-19T02:13:31;20.70;99.90
15749;DHT22;7976;52.526;13.326;2022-08-19T02:15:59;20.70;99.90
15749;DHT22;7976;52.526;13.326;2022-08-19T02:18:26;20.70;99.90
15749;DHT22;7976;52.526;13.326;2022-08-19T02:20:53;20.60;99.90
15749;DHT22;7976;52.526;13.326;2022-08-19T02:23:20;20.60;99.90
15749;DHT22;7976;52.526;13.326;2022-08-19T02:25:48;20.60;99.90
15749;DHT22;7976;52.526;13.326;2022-08-19T02:28:16;20.60;99.90
15749;DHT22;7976;52.526;13.326;2022-08-19T02:30:43;20.60;99.90
15749;DHT22;7976;52.526;13.326;2022-08-19T02:33:10;20.60;99.90
15749;DHT22;7976;52.526;13.326;2022-08-19T02:35:40;20.50;99.90
15749;DHT22;7976;52.526;13.326;2022-08-19T02:38:08;20.50;99.90
15749;DHT22;7976;52.526;13.326;2022-08-19T02:40:55;20.50;99.90
15749;DHT22;7976;52.526;13.326;2022-08-19T02:43:27;20.40;99.90
15749;DHT22;7976;52.526;13.326;2022-08-19T02:45:55;20.40;99.90
15749;DHT22;7976;52.526;13.326;2022-08-19T02:48:24;20.40;99.90
15749;DHT22;7976;52.526;13.326;2022-08-19T02:50:52;20.50;99.90
15749;DHT22;7976;52.526;13.326;2022-08-19T02:53:22;20.40;99.90
15749;DHT22;7976;52.526;13.326;2022-08-19T02:55:51;20.40;99.90
15749;DHT22;7976;52.526;13.326;2022-08-19T02:58:19;20.30;99.90
15749;DHT22;7976;52.526;13.326;2022-08-19T03:00:50;20.30;99.90
15749;DHT22;7976;52.526;13.326;2022-08-19T03:03:19;20.30;99.90
15749;DHT22;7976;52.526;13.326;2022-08-19T03:05:47;20.20;99.90
15749;DHT22;7976;52.526;13.326;2022-08-19T03:08:14;20.20;99.90
15749;DHT22;7976;52.526;13.326;2022-08-19T03:10:42;20.20;99.90
15749;DHT22;7976;52.526;13.326;2022-08-19T03:13:12;20.30;99.90
15749;DHT22;7976;52.526;13.326;2022-08-19T03:15:45;20.30;99.90
15749;DHT22;7976;52.526;13.326;2022-08-19T03:18:15;20.30;99.90
15749;DHT22;7976;52.526;13.326;2022-08-19T03:20:44;20.30;99.90
15749;DHT22;7976;52.526;13.326;2022-08-19T03:23:13;20.30;99.90
15749;DHT22;7976;52.526;13.326;2022-08-19T03:25:44;20.30;99.90
15749;DHT22;7976;52.526;13.326;2022-08-19T03:28:14;20.30;99.90
15749;DHT22;7976;52.526;13.326;2022-08-19T03:30:43;20.30;99.90
15749;DHT22;7976;52.526;13.326;2022-08-19T03:33:25;20.30;99.90
15749;DHT22;7976;52.526;13.326;2022-08-19T03:36:05;20.30;99.90
15749;DHT22;7976;52.526;13.326;2022-08-19T03:38:34;20.30;99.90
15749;DHT22;7976;52.526;13.326;2022-08-19T03:41:03;20.30;99.90
15749;DHT22;7976;52.526;13.326;2022-08-19T03:43:34;20.30;99.90
15749;DHT22;7976;52.526;13.326;2022-08-19T03:46:03;20.30;99.90
15749;DHT22;7976;52.526;13.326;2022-08-19T03:48:34;20.30;99.90
15749;DHT22;7976;52.526;13.326;2022-08-19T03:51:02;20.30;99.90
15749;DHT22;7976;52.526;13.326;2022-08-19T03:53:31;20.30;99.90
15749;DHT22;7976;52.526;13.326;2022-08-19T03:56:00;20.30;99.90
15749;DHT22;7976;52.526;13.326;2022-08-19T03:58:29;20.30;99.90
15749;DHT22;7976;52.526;13.326;2022-08-19T04:00:56;20.40;99.90
15749;DHT22;7976;52.526;13.326;2022-08-19T04:03:23;20.40;99.90
15749;DHT22;7976;52.526;13.326;2022-08-19T04:05:53;20.40;99.90
15749;DHT22;7976;52.526;13.326;2022-08-19T04:08:20;20.40;99.90
15749;DHT22;7976;52.526;13.326;2022-08-19T04:10:48;20.40;99.90
15749;DHT22;7976;52.526;13.326;2022-08-19T04:13:16;20.40;99.90
15749;DHT22;7976;52.526;13.326;2022-08-19T04:15:45;20.40;99.90
15749;DHT22;7976;52.526;13.326;2022-08-19T04:18:13;20.40;99.90
15749;DHT22;7976;52.526;13.326;2022-08-19T04:20:42;20.40;99.90
15749;DHT22;7976;52.526;13.326;2022-08-19T04:23:14;20.40;99.90
15749;DHT22;7976;52.526;13.326;2022-08-19T04:25:43;20.50;99.90
15749;DHT22;7976;52.526;13.326;2022-08-19T04:28:12;20.50;99.90
15749;DHT22;7976;52.526;13.326;2022-08-19T04:30:41;20.50;99.90
15749;DHT22;7976;52.526;13.326;2022-08-19T04:33:10;20.50;99.90
15749;DHT22;7976;52.526;13.326;2022-08-19T04:35:40;20.60;99.90
15749;DHT22;7976;52.526;13.326;2022-08-19T04:38:09;20.60;99.90
15749;DHT22;7976;52.526;13.326;2022-08-19T04:40:41;20.60;99.90
15749;DHT22;7976;52.526;13.326;2022-08-19T04:43:27;20.60;99.90
15749;DHT22;7976;52.526;13.326;2022-08-19T04:45:55;20.60;99.90
15749;DHT22;7976;52.526;13.326;2022-08-19T04:48:23;20.70;99.90
15749;DHT22;7976;52.526;13.326;2022-08-19T04:50:52;20.70;99.90
15749;DHT22;7976;52.526;13.326;2022-08-19T04:53:23;20.70;99.90
15749;DHT22;7976;52.526;13.326;2022-08-19T04:55:56;20.60;99.90
15749;DHT22;7976;52.526;13.326;2022-08-19T04:58:24;20.70;99.90
15749;DHT22;7976;52.526;13.326;2022-08-19T05:00:53;20.70;99.90
15749;DHT22;7976;52.526;13.326;2022-08-19T05:03:21;20.70;99.90
15749;DHT22;7976;52.526;13.326;2022-08-19T05:05:48;20.70;99.90
15749;DHT22;7976;52.526;13.326;2022-08-19T05:08:21;20.70;99.90
15749;DHT22;7976;52.526;13.326;2022-08-19T05:10:50;20.70;99.90
15749;DHT22;7976;52.526;13.326;2022-08-19T05:13:19;20.80;99.90
15749;DHT22;7976;52.526;13.326;2022-08-19T05:15:54;20.80;99.90
15749;DHT22;7976;52.526;13.326;2022-08-19T05:18:21;20.80;99.90
15749;DHT22;7976;52.526;13.326;2022-08-19T05:21:07;20.80;99.90
15749;DHT22;7976;52.526;13.326;2022-08-19T05:23:52;20.90;99.90
15749;DHT22;7976;52.526;13.326;2022-08-19T05:26:19;20.90;99.90
15749;DHT22;7976;52.526;13.326;2022-08-19T05:28:47;20.90;99.90
15749;DHT22;7976;52.526;13.326;2022-08-19T05:31:14;20.90;99.90
15749;DHT22;7976;52.526;13.326;2022-08-19T05:33:41;20.90;99.90
15749;DHT22;7976;52.526;13.326;2022-08-19T05:36:08;21.00;99.90
15749;DHT22;7976;52.526;13.326;2022-08-19T05:38:35;21.00;99.90
15749;DHT22;7976;52.526;13.326;2022-08-19T05:41:06;21.00;99.90
15749;DHT22;7976;52.526;13.326;2022-08-19T05:43:34;21.00;99.90
15749;DHT22;7976;52.526;13.326;2022-08-19T05:46:04;21.10;99.90
15749;DHT22;7976;52.526;13.326;2022-08-19T05:48:31;21.20;99.90
15749;DHT22;7976;52.526;13.326;2022-08-19T05:51:02;21.30;99.90
15749;DHT22;7976;52.526;13.326;2022-08-19T05:53:31;21.30;99.90
15749;DHT22;7976;52.526;13.326;2022-08-19T05:56:03;21.40;99.90
15749;DHT22;7976;52.526;13.326;2022-08-19T05:58:31;21.40;99.90
15749;DHT22;7976;52.526;13.326;2022-08-19T06:00:58;21.50;99.90
15749;DHT22;7976;52.526;13.326;2022-08-19T06:03:31;21.50;99.90
15749;DHT22;7976;52.526;13.326;2022-08-19T06:06:00;21.50;99.90
15749;DHT22;7976;52.526;13.326;2022-08-19T06:08:28;21.60;99.90
15749;DHT22;7976;52.526;13.326;2022-08-19T06:10:55;21.70;99.90
15749;DHT22;7976;52.526;13.326;2022-08-19T06:13:22;21.70;99.90
15749;DHT22;7976;52.526;13.326;2022-08-19T06:15:51;21.70;99.90
15749;DHT22;7976;52.526;13.326;2022-08-19T06:18:17;21.80;99.90
15749;DHT22;7976;52.526;13.326;2022-08-19T06:20:46;21.80;99.90
15749;DHT22;7976;52.526;13.326;2022-08-19T06:23:14;21.80;99.90
15749;DHT22;7976;52.526;13.326;2022-08-19T06:25:41;21.80;99.90
15749;DHT22;7976;52.526;13.326;2022-08-19T06:28:08;21.90;99.90
15749;DHT22;7976;52.526;13.326;2022-08-19T06:30:36;22.00;99.90
15749;DHT22;7976;52.526;13.326;2022-08-19T06:33:03;22.00;99.90
15749;DHT22;7976;52.526;13.326;2022-08-19T06:35:30;22.00;99.90
15749;DHT22;7976;52.526;13.326;2022-08-19T06:37:58;22.10;99.90
15749;DHT22;7976;52.526;13.326;2022-08-19T06:40:25;22.10;99.90
15749;DHT22;7976;52.526;13.326;2022-08-19T06:42:52;22.10;99.90
15749;DHT22;7976;52.526;13.326;2022-08-19T06:45:19;22.10;99.90
15749;DHT22;7976;52.526;13.326;2022-08-19T06:47:46;22.20;99.90
15749;DHT22;7976;52.526;13.326;2022-08-19T06:50:13;22.10;99.90
15749;DHT22;7976;52.526;13.326;2022-08-19T06:52:41;22.20;99.90
15749;DHT22;7976;52.526;13.326;2022-08-19T06:55:09;22.20;99.90
15749;DHT22;7976;52.526;13.326;2022-08-19T06:57:36;22.20;99.90
15749;DHT22;7976;52.526;13.326;2022-08-19T07:00:04;22.20;99.90
15749;DHT22;7976;52.526;13.326;2022-08-19T07:02:36;22.20;99.90
15749;DHT22;7976;52.526;13.326;2022-08-19T07:05:04;22.20;99.90
15749;DHT22;7976;52.526;13.326;2022-08-19T07:07:31;22.20;99.90
15749;DHT22;7976;52.526;13.326;2022-08-19T07:09:59;22.20;99.90
15749;DHT22;7976;52.526;13.326;2022-08-19T07:12:28;22.20;99.90
15749;DHT22;7976;52.526;13.326;2022-08-19T07:14:58;22.20;99.90
15749;DHT22;7976;52.526;13.326;2022-08-19T07:17:26;22.20;99.90
15749;DHT22;7976;52.526;13.326;2022-08-19T07:19:54;22.30;99.90
15749;DHT22;7976;52.526;13.326;2022-08-19T07:22:21;22.30;99.90
15749;DHT22;7976;52.526;13.326;2022-08-19T07:24:48;22.30;99.90
15749;DHT22;7976;52.526;13.326;2022-08-19T07:27:15;22.40;99.90
15749;DHT22;7976;52.526;13.326;2022-08-19T07:29:44;22.40;99.90
15749;DHT22;7976;52.526;13.326;2022-08-19T07:32:11;22.50;99.90
15749;DHT22;7976;52.526;13.326;2022-08-19T07:34:38;22.50;99.90
15749;DHT22;7976;52.526;13.326;2022-08-19T07:37:06;22.60;99.90
15749;DHT22;7976;52.526;13.326;2022-08-19T07:39:35;22.60;99.90
15749;DHT22;7976;52.526;13.326;2022-08-19T07:42:08;22.60;99.90
15749;DHT22;7976;52.526;13.326;2022-08-19T07:44:37;22.60;99.90
15749;DHT22;7976;52.526;13.326;2022-08-19T07:47:05;22.60;99.90
15749;DHT22;7976;52.526;13.326;2022-08-19T07:49:32;22.60;99.90
15749;DHT22;7976;52.526;13.326;2022-08-19T07:52:01;22.60;99.90
15749;DHT22;7976;52.526;13.326;2022-08-19T07:54:34;22.60;99.90
15749;DHT22;7976;52.526;13.326;2022-08-19T07:57:04;22.60;99.90
15749;DHT22;7976;52.526;13.326;2022-08-19T07:59:32;22.60;99.90
15749;DHT22;7976;52.526;13.326;2022-08-19T08:01:59;22.60;99.90
15749;DHT22;7976;52.526;13.326;2022-08-19T08:04:30;22.70;99.90
15749;DHT22;7976;52.526;13.326;2022-08-19T08:07:16;22.70;99.90
15749;DHT22;7976;52.526;13.326;2022-08-19T08:10:02;22.70;99.90
15749;DHT22;7976;52.526;13.326;2022-08-19T08:12:35;22.70;99.90
15749;DHT22;7976;52.526;13.326;2022-08-19T08:15:09;22.70;99.90
15749;DHT22;7976;52.526;13.326;2022-08-19T08:17:42;22.70;99.90
15749;DHT22;7976;52.526;13.326;2022-08-19T08:20:12;22.60;99.90
15749;DHT22;7976;52.526;13.326;2022-08-19T08:22:43;22.60;99.90
15749;DHT22;7976;52.526;13.326;2022-08-19T08:25:30;22.70;99.90
15749;DHT22;7976;52.526;13.326;2022-08-19T08:27:57;22.70;99.90
15749;DHT22;7976;52.526;13.326;2022-08-19T08:30:27;22.70;99.90
15749;DHT22;7976;52.526;13.326;2022-08-19T08:32:56;22.70;99.90
15749;DHT22;7976;52.526;13.326;2022-08-19T08:35:24;22.70;99.90
15749;DHT22;7976;52.526;13.326;2022-08-19T08:37:53;22.80;99.90
15749;DHT22;7976;52.526;13.326;2022-08-19T08:40:26;22.70;99.90
15749;DHT22;7976;52.526;13.326;2022-08-19T08:42:58;22.70;99.90
15749;DHT22;7976;52.526;13.326;2022-08-19T08:45:30;22.70;99.90
15749;DHT22;7976;52.526;13.326;2022-08-19T08:48:07;22.70;99.90
15749;DHT22;7976;52.526;13.326;2022-08-19T08:50:45;22.70;99.90
15749;DHT22;7976;52.526;13.326;2022-08-19T08:53:18;22.80;99.90
15749;DHT22;7976;52.526;13.326;2022-08-19T08:55:46;22.70;99.90
15749;DHT22;7976;52.526;13.326;2022-08-19T08:58:19;22.70;99.90
15749;DHT22;7976;52.526;13.326;2022-08-19T09:00:51;22.70;99.90
15749;DHT22;7976;52.526;13.326;2022-08-19T09:03:21;22.70;99.90
15749;DHT22;7976;52.526;13.326;2022-08-19T09:05:57;22.70;99.90
15749;DHT22;7976;52.526;13.326;2022-08-19T09:08:40;22.70;99.90
15749;DHT22;7976;52.526;13.326;2022-08-19T09:11:18;22.70;99.90
15749;DHT22;7976;52.526;13.326;2022-08-19T09:14:02;22.70;99.90
15749;DHT22;7976;52.526;13.326;2022-08-19T09:16:36;22.70;99.90
15749;DHT22;7976;52.526;13.326;2022-08-19T09:19:07;22.70;99.90
15749;DHT22;7976;52.526;13.326;2022-08-19T09:21:37;22.80;99.90
15749;DHT22;7976;52.526;13.326;2022-08-19T09:24:05;22.80;99.90
15749;DHT22;7976;52.526;13.326;2022-08-19T09:26:32;23.00;99.90
15749;DHT22;7976;52.526;13.326;2022-08-19T09:29:00;23.10;99.90
15749;DHT22;7976;52.526;13.326;2022-08-19T09:31:31;23.30;99.90
15749;DHT22;7976;52.526;13.326;2022-08-19T09:33:59;23.50;99.90
15749;DHT22;7976;52.526;13.326;2022-08-19T09:36:31;23.60;99.90
15749;DHT22;7976;52.526;13.326;2022-08-19T09:39:00;23.70;99.90
15749;DHT22;7976;52.526;13.326;2022-08-19T09:41:27;23.80;99.90
15749;DHT22;7976;52.526;13.326;2022-08-19T09:43:55;23.80;99.90
15749;DHT22;7976;52.526;13.326;2022-08-19T09:46:25;23.80;99.90
15749;DHT22;7976;52.526;13.326;2022-08-19T09:48:54;23.80;99.90
15749;DHT22;7976;52.526;13.326;2022-08-19T09:51:25;23.90;99.90
15749;DHT22;7976;52.526;13.326;2022-08-19T09:53:54;23.90;99.90
15749;DHT22;7976;52.526;13.326;2022-08-19T09:56:26;23.80;99.90
15749;DHT22;7976;52.526;13.326;2022-08-19T09:58:53;23.80;99.90
15749;DHT22;7976;52.526;13.326;2022-08-19T10:01:21;23.80;99.90
15749;DHT22;7976;52.526;13.326;2022-08-19T10:03:52;23.80;99.90
15749;DHT22;7976;52.526;13.326;2022-08-19T10:06:20;23.80;99.90
15749;DHT22;7976;52.526;13.326;2022-08-19T10:08:48;23.80;99.90
15749;DHT22;7976;52.526;13.326;2022-08-19T10:11:17;23.90;99.90
15749;DHT22;7976;52.526;13.326;2022-08-19T10:13:47;23.90;99.90
15749;DHT22;7976;52.526;13.326;2022-08-19T10:16:17;23.90;99.90
15749;DHT22;7976;52.526;13.326;2022-08-19T10:18:47;23.90;99.90
15749;DHT22;7976;52.526;13.326;2022-08-19T10:21:17;24.00;99.90
15749;DHT22;7976;52.526;13.326;2022-08-19T10:23:48;24.10;99.90
15749;DHT22;7976;52.526;13.326;2022-08-19T10:26:18;24.20;99.90
15749;DHT22;7976;52.526;13.326;2022-08-19T10:28:49;24.30;99.90
15749;DHT22;7976;52.526;13.326;2022-08-19T10:31:18;24.20;99.90
15749;DHT22;7976;52.526;13.326;2022-08-19T10:33:47;24.20;99.90
15749;DHT22;7976;52.526;13.326;2022-08-19T10:36:18;24.10;99.90
15749;DHT22;7976;52.526;13.326;2022-08-19T10:38:52;24.10;99.90
15749;DHT22;7976;52.526;13.326;2022-08-19T10:41:24;24.00;99.90
15749;DHT22;7976;52.526;13.326;2022-08-19T10:43:56;24.00;99.90
15749;DHT22;7976;52.526;13.326;2022-08-19T10:46:28;23.90;99.90
15749;DHT22;7976;52.526;13.326;2022-08-19T10:48:56;23.90;99.90
15749;DHT22;7976;52.526;13.326;2022-08-19T10:51:23;23.80;99.90
15749;DHT22;7976;52.526;13.326;2022-08-19T10:54:08;23.80;99.90
15749;DHT22;7976;52.526;13.326;2022-08-19T10:56:35;23.70;99.90
15749;DHT22;7976;52.526;13.326;2022-08-19T10:59:20;23.60;99.90
15749;DHT22;7976;52.526;13.326;2022-08-19T11:01:49;23.50;99.90
15749;DHT22;7976;52.526;13.326;2022-08-19T11:04:18;23.50;99.90
15749;DHT22;7976;52.526;13.326;2022-08-19T11:06:48;23.50;99.90
15749;DHT22;7976;52.526;13.326;2022-08-19T11:09:19;23.60;99.90
15749;DHT22;7976;52.526;13.326;2022-08-19T11:11:49;23.60;99.90
15749;DHT22;7976;52.526;13.326;2022-08-19T11:14:20;23.60;99.90
15749;DHT22;7976;52.526;13.326;2022-08-19T11:16:51;23.60;99.90
15749;DHT22;7976;52.526;13.326;2022-08-19T11:19:21;23.60;99.90
15749;DHT22;7976;52.526;13.326;2022-08-19T11:21:50;23.60;99.90
15749;DHT22;7976;52.526;13.326;2022-08-19T11:24:21;23.60;99.90
15749;DHT22;7976;52.526;13.326;2022-08-19T11:26:51;23.60;99.90
15749;DHT22;7976;52.526;13.326;2022-08-19T11:29:23;23.60;99.90
15749;DHT22;7976;52.526;13.326;2022-08-19T11:31:53;23.60;99.90
15749;DHT22;7976;52.526;13.326;2022-08-19T11:34:24;23.60;99.90
15749;DHT22;7976;52.526;13.326;2022-08-19T11:36:53;23.60;99.90
15749;DHT22;7976;52.526;13.326;2022-08-19T11:39:23;23.60;99.90
15749;DHT22;7976;52.526;13.326;2022-08-19T11:41:51;23.60;99.90
15749;DHT22;7976;52.526;13.326;2022-08-19T11:44:18;23.60;99.90
15749;DHT22;7976;52.526;13.326;2022-08-19T11:46:47;23.60;99.90
15749;DHT22;7976;52.526;13.326;2022-08-19T11:49:15;23.60;99.90
15749;DHT22;7976;52.526;13.326;2022-08-19T11:51:45;23.60;99.90
15749;DHT22;7976;52.526;13.326;2022-08-19T11:54:15;23.60;99.90
15749;DHT22;7976;52.526;13.326;2022-08-19T11:56:44;23.60;99.90
15749;DHT22;7976;52.526;13.326;2022-08-19T11:59:13;23.60;99.90
15749;DHT22;7976;52.526;13.326;2022-08-19T12:01:39;23.60;99.90
15749;DHT22;7976;52.526;13.326;2022-08-19T12:04:09;23.60;99.90
15749;DHT22;7976;52.526;13.326;2022-08-19T12:06:41;23.60;99.90
15749;DHT22;7976;52.526;13.326;2022-08-19T12:09:09;23.60;99.90
15749;DHT22;7976;52.526;13.326;2022-08-19T12:11:38;23.70;99.90
15749;DHT22;7976;52.526;13.326;2022-08-19T12:14:08;23.80;99.90
15749;DHT22;7976;52.526;13.326;2022-08-19T12:16:37;23.80;99.90
15749;DHT22;7976;52.526;13.326;2022-08-19T12:19:04;23.80;99.90
15749;DHT22;7976;52.526;13.326;2022-08-19T12:21:34;23.80;99.90
15749;DHT22;7976;52.526;13.326;2022-08-19T12:24:04;23.80;99.90
15749;DHT22;7976;52.526;13.326;2022-08-19T12:26:32;23.70;99.90
15749;DHT22;7976;52.526;13.326;2022-08-19T12:28:59;23.70;99.90
15749;DHT22;7976;52.526;13.326;2022-08-19T12:31:26;23.70;99.90
15749;DHT22;7976;52.526;13.326;2022-08-19T12:33:53;23.70;99.90
15749;DHT22;7976;52.526;13.326;2022-08-19T12:36:21;23.70;99.90
15749;DHT22;7976;52.526;13.326;2022-08-19T12:38:50;23.70;99.90
15749;DHT22;7976;52.526;13.326;2022-08-19T12:41:19;23.90;99.90
15749;DHT22;7976;52.526;13.326;2022-08-19T12:43:48;24.00;99.90
15749;DHT22;7976;52.526;13.326;2022-08-19T12:46:16;24.10;99.90
15749;DHT22;7976;52.526;13.326;2022-08-19T12:48:43;24.20;99.90
15749;DHT22;7976;52.526;13.326;2022-08-19T12:51:12;24.20;99.90
15749;DHT22;7976;52.526;13.326;2022-08-19T12:53:41;24.30;99.90
15749;DHT22;7976;52.526;13.326;2022-08-19T12:56:11;24.50;99.90
15749;DHT22;7976;52.526;13.326;2022-08-19T12:58:40;24.60;99.90
15749;DHT22;7976;52.526;13.326;2022-08-19T13:01:08;24.60;99.90
15749;DHT22;7976;52.526;13.326;2022-08-19T13:03:37;24.70;99.90
15749;DHT22;7976;52.526;13.326;2022-08-19T13:06:04;24.80;99.90
15749;DHT22;7976;52.526;13.326;2022-08-19T13:08:32;24.80;99.90
15749;DHT22;7976;52.526;13.326;2022-08-19T13:11:08;24.80;99.90
15749;DHT22;7976;52.526;13.326;2022-08-19T13:13:38;24.90;99.90
15749;DHT22;7976;52.526;13.326;2022-08-19T13:16:07;24.90;99.90
15749;DHT22;7976;52.526;13.326;2022-08-19T13:18:37;24.80;99.90
15749;DHT22;7976;52.526;13.326;2022-08-19T13:21:06;24.80;99.90
15749;DHT22;7976;52.526;13.326;2022-08-19T13:23:37;24.70;99.90
15749;DHT22;7976;52.526;13.326;2022-08-19T13:26:09;24.50;99.90
15749;DHT22;7976;52.526;13.326;2022-08-19T13:28:39;24.50;99.90
15749;DHT22;7976;52.526;13.326;2022-08-19T13:31:28;24.40;99.90
15749;DHT22;7976;52.526;13.326;2022-08-19T13:34:15;24.40;99.90
15749;DHT22;7976;52.526;13.326;2022-08-19T13:36:53;24.40;99.90
15749;DHT22;7976;52.526;13.326;2022-08-19T13:39:20;24.50;99.90
15749;DHT22;7976;52.526;13.326;2022-08-19T13:41:52;24.50;99.90
15749;DHT22;7976;52.526;13.326;2022-08-19T13:44:19;24.50;99.90
15749;DHT22;7976;52.526;13.326;2022-08-19T13:46:47;24.50;99.90
15749;DHT22;7976;52.526;13.326;2022-08-19T13:49:19;24.60;99.90
15749;DHT22;7976;52.526;13.326;2022-08-19T13:51:48;24.60;99.90
15749;DHT22;7976;52.526;13.326;2022-08-19T13:54:15;24.70;99.90
15749;DHT22;7976;52.526;13.326;2022-08-19T13:56:44;24.80;99.90
15749;DHT22;7976;52.526;13.326;2022-08-19T13:59:14;24.80;99.90
15749;DHT22;7976;52.526;13.326;2022-08-19T14:01:43;24.70;99.90
15749;DHT22;7976;52.526;13.326;2022-08-19T14:04:11;24.70;99.90
15749;DHT22;7976;52.526;13.326;2022-08-19T14:06:38;24.60;99.90
15749;DHT22;7976;52.526;13.326;2022-08-19T14:09:05;24.60;99.90
15749;DHT22;7976;52.526;13.326;2022-08-19T14:11:36;24.60;99.90
15749;DHT22;7976;52.526;13.326;2022-08-19T14:14:04;24.60;99.90
15749;DHT22;7976;52.526;13.326;2022-08-19T14:16:32;24.60;99.90
15749;DHT22;7976;52.526;13.326;2022-08-19T14:19:00;24.60;99.90
15749;DHT22;7976;52.526;13.326;2022-08-19T14:21:29;24.60;99.90
15749;DHT22;7976;52.526;13.326;2022-08-19T14:23:57;24.70;99.90
15749;DHT22;7976;52.526;13.326;2022-08-19T14:26:24;24.70;99.90
15749;DHT22;7976;52.526;13.326;2022-08-19T14:28:51;24.70;99.90
15749;DHT22;7976;52.526;13.326;2022-08-19T14:31:19;24.70;99.90
15749;DHT22;7976;52.526;13.326;2022-08-19T14:33:50;24.70;99.90
15749;DHT22;7976;52.526;13.326;2022-08-19T14:36:17;24.60;99.90
15749;DHT22;7976;52.526;13.326;2022-08-19T14:38:46;24.60;99.90
15749;DHT22;7976;52.526;13.326;2022-08-19T14:41:15;24.60;99.90
15749;DHT22;7976;52.526;13.326;2022-08-19T14:43:46;24.50;99.90
15749;DHT22;7976;52.526;13.326;2022-08-19T14:46:19;24.50;99.90
15749;DHT22;7976;52.526;13.326;2022-08-19T14:48:51;24.40;99.90
15749;DHT22;7976;52.526;13.326;2022-08-19T14:51:22;24.30;99.90
15749;DHT22;7976;52.526;13.326;2022-08-19T14:53:52;24.30;99.90
15749;DHT22;7976;52.526;13.326;2022-08-19T14:56:22;24.20;99.90
15749;DHT22;7976;52.526;13.326;2022-08-19T14:58:52;24.20;99.90
15749;DHT22;7976;52.526;13.326;2022-08-19T15:01:21;24.20;99.90
15749;DHT22;7976;52.526;13.326;2022-08-19T15:03:51;24.20;99.90
15749;DHT22;7976;52.526;13.326;2022-08-19T15:06:19;24.20;99.90
15749;DHT22;7976;52.526;13.326;2022-08-19T15:08:48;24.20;99.90
15749;DHT22;7976;52.526;13.326;2022-08-19T15:11:18;24.20;99.90
15749;DHT22;7976;52.526;13.326;2022-08-19T15:13:49;24.20;99.90
15749;DHT22;7976;52.526;13.326;2022-08-19T15:16:17;24.10;99.90
15749;DHT22;7976;52.526;13.326;2022-08-19T15:18:49;24.10;99.90
15749;DHT22;7976;52.526;13.326;2022-08-19T15:21:19;24.00;99.90
15749;DHT22;7976;52.526;13.326;2022-08-19T15:23:47;24.00;99.90
15749;DHT22;7976;52.526;13.326;2022-08-19T15:26:16;24.00;99.90
15749;DHT22;7976;52.526;13.326;2022-08-19T15:28:45;23.90;99.90
15749;DHT22;7976;52.526;13.326;2022-08-19T15:31:17;23.90;99.90
15749;DHT22;7976;52.526;13.326;2022-08-19T15:33:47;23.90;99.90
15749;DHT22;7976;52.526;13.326;2022-08-19T15:36:16;23.80;99.90
15749;DHT22;7976;52.526;13.326;2022-08-19T15:38:43;23.80;99.90
15749;DHT22;7976;52.526;13.326;2022-08-19T15:41:17;23.80;99.90
15749;DHT22;7976;52.526;13.326;2022-08-19T15:43:52;23.70;99.90
15749;DHT22;7976;52.526;13.326;2022-08-19T15:46:23;23.70;99.90